sensor_id;sensor_type;location;lat;lon;timestamp;P1;durP1;ratioP1;P2;durP2;ratioP2
38853;SDS011;24606;51.992;4.198;2023-04-25T00:01:23;7.72;;;3.17;;
38853;SDS011;24606;51.992;4.198;2023-04-25T00:06:26;7.70;;;3.63;;
38853;SDS011;24606;51.992;4.198;2023-04-25T00:11:28;8.60;;;3.78;;
38853;SDS011;24606;51.992;4.198;2023-04-25T00:16:31;8.48;;;4.53;;
38853;SDS011;24606;51.992;4.198;2023-04-25T00:21:36;8.77;;;2.90;;
38853;SDS011;24606;51.992;4.198;2023-04-25T00:26:40;11.20;;;2.78;;
38853;SDS011;24606;51.992;4.198;2023-04-25T00:31:42;7.37;;;3.10;;
38853;SDS011;24606;51.992;4.198;2023-04-25T00:36:45;7.97;;;3.38;;
38853;SDS011;24606;51.992;4.198;2023-04-25T00:41:47;11.38;;;5.43;;
38853;SDS011;24606;51.992;4.198;2023-04-25T00:46:53;12.43;;;6.30;;
38853;SDS011;24606;51.992;4.198;2023-04-25T00:51:56;8.35;;;4.32;;
38853;SDS011;24606;51.992;4.198;2023-04-25T00:56:58;10.27;;;3.40;;
38853;SDS011;24606;51.992;4.198;2023-04-25T01:02:01;13.23;;;4.65;;
38853;SDS011;24606;51.992;4.198;2023-04-25T01:07:04;7.50;;;3.75;;
38853;SDS011;24606;51.992;4.198;2023-04-25T01:12:06;8.75;;;3.95;;
38853;SDS011;24606;51.992;4.198;2023-04-25T01:17:08;13.40;;;2.78;;
38853;SDS011;24606;51.992;4.198;2023-04-25T01:22:12;19.70;;;2.80;;
38853;SDS011;24606;51.992;4.198;2023-04-25T01:27:14;11.20;;;2.65;;
38853;SDS011;24606;51.992;4.198;2023-04-25T01:32:16;6.38;;;2.28;;
38853;SDS011;24606;51.992;4.198;2023-04-25T01:37:20;7.75;;;2.28;;
38853;SDS011;24606;51.992;4.198;2023-04-25T01:42:22;6.70;;;1.75;;
38853;SDS011;24606;51.992;4.198;2023-04-25T01:47:24;11.97;;;2.03;;
38853;SDS011;24606;51.992;4.198;2023-04-25T01:52:27;8.70;;;2.57;;
38853;SDS011;24606;51.992;4.198;2023-04-25T01:57:29;9.82;;;3.47;;
38853;SDS011;24606;51.992;4.198;2023-04-25T02:02:31;5.03;;;1.80;;
38853;SDS011;24606;51.992;4.198;2023-04-25T02:07:35;5.15;;;1.98;;
38853;SDS011;24606;51.992;4.198;2023-04-25T02:12:37;6.10;;;2.28;;
38853;SDS011;24606;51.992;4.198;2023-04-25T02:17:39;5.80;;;2.47;;
38853;SDS011;24606;51.992;4.198;2023-04-25T02:22:42;5.93;;;2.77;;
38853;SDS011;24606;51.992;4.198;2023-04-25T02:27:44;7.03;;;3.35;;
38853;SDS011;24606;51.992;4.198;2023-04-25T02:32:46;12.15;;;2.78;;
38853;SDS011;24606;51.992;4.198;2023-04-25T02:37:49;9.57;;;3.57;;
38853;SDS011;24606;51.992;4.198;2023-04-25T02:42:51;6.97;;;2.15;;
38853;SDS011;24606;51.992;4.198;2023-04-25T02:47:53;11.33;;;2.50;;
38853;SDS011;24606;51.992;4.198;2023-04-25T02:52:56;9.90;;;2.03;;
38853;SDS011;24606;51.992;4.198;2023-04-25T02:57:58;8.63;;;2.50;;
38853;SDS011;24606;51.992;4.198;2023-04-25T03:03:00;3.92;;;1.55;;
38853;SDS011;24606;51.992;4.198;2023-04-25T03:08:03;4.20;;;2.10;;
38853;SDS011;24606;51.992;4.198;2023-04-25T03:13:05;7.18;;;1.52;;
38853;SDS011;24606;51.992;4.198;2023-04-25T03:18:07;5.32;;;2.55;;
38853;SDS011;24606;51.992;4.198;2023-04-25T03:23:10;9.20;;;2.77;;
38853;SDS011;24606;51.992;4.198;2023-04-25T03:28:13;5.10;;;1.80;;
38853;SDS011;24606;51.992;4.198;2023-04-25T03:33:14;4.68;;;1.88;;
38853;SDS011;24606;51.992;4.198;2023-04-25T03:38:18;6.30;;;2.40;;
38853;SDS011;24606;51.992;4.198;2023-04-25T03:43:19;3.78;;;1.77;;
38853;SDS011;24606;51.992;4.198;2023-04-25T03:48:21;5.57;;;2.23;;
38853;SDS011;24606;51.992;4.198;2023-04-25T03:53:26;5.57;;;2.70;;
38853;SDS011;24606;51.992;4.198;2023-04-25T03:58:28;7.30;;;2.05;;
38853;SDS011;24606;51.992;4.198;2023-04-25T04:03:30;5.03;;;2.50;;
38853;SDS011;24606;51.992;4.198;2023-04-25T04:08:33;3.17;;;1.52;;
38853;SDS011;24606;51.992;4.198;2023-04-25T04:13:35;2.53;;;1.13;;
38853;SDS011;24606;51.992;4.198;2023-04-25T04:18:37;3.15;;;1.38;;
38853;SDS011;24606;51.992;4.198;2023-04-25T04:23:40;3.33;;;1.40;;
38853;SDS011;24606;51.992;4.198;2023-04-25T04:28:42;7.22;;;1.42;;
38853;SDS011;24606;51.992;4.198;2023-04-25T04:33:44;4.03;;;1.35;;
38853;SDS011;24606;51.992;4.198;2023-04-25T04:38:48;2.78;;;1.50;;
38853;SDS011;24606;51.992;4.198;2023-04-25T04:43:50;3.92;;;1.65;;
38853;SDS011;24606;51.992;4.198;2023-04-25T04:48:53;2.80;;;1.20;;
38853;SDS011;24606;51.992;4.198;2023-04-25T04:53:58;4.47;;;1.50;;
38853;SDS011;24606;51.992;4.198;2023-04-25T04:59:02;5.22;;;1.27;;
38853;SDS011;24606;51.992;4.198;2023-04-25T05:04:04;2.03;;;1.00;;
38853;SDS011;24606;51.992;4.198;2023-04-25T05:09:08;2.22;;;1.17;;
38853;SDS011;24606;51.992;4.198;2023-04-25T05:14:10;2.67;;;1.10;;
38853;SDS011;24606;51.992;4.198;2023-04-25T05:19:12;3.65;;;0.70;;
38853;SDS011;24606;51.992;4.198;2023-04-25T05:24:15;3.55;;;0.98;;
38853;SDS011;24606;51.992;4.198;2023-04-25T05:29:17;4.63;;;0.80;;
38853;SDS011;24606;51.992;4.198;2023-04-25T05:34:19;9.03;;;1.63;;
38853;SDS011;24606;51.992;4.198;2023-04-25T05:39:22;4.00;;;0.90;;
38853;SDS011;24606;51.992;4.198;2023-04-25T05:44:24;6.20;;;1.15;;
38853;SDS011;24606;51.992;4.198;2023-04-25T05:49:26;2.42;;;0.90;;
38853;SDS011;24606;51.992;4.198;2023-04-25T05:54:29;3.93;;;0.83;;
38853;SDS011;24606;51.992;4.198;2023-04-25T05:59:31;3.35;;;0.85;;
38853;SDS011;24606;51.992;4.198;2023-04-25T06:04:33;4.82;;;0.77;;
38853;SDS011;24606;51.992;4.198;2023-04-25T06:09:37;4.55;;;1.33;;
38853;SDS011;24606;51.992;4.198;2023-04-25T06:14:40;2.53;;;1.20;;
38853;SDS011;24606;51.992;4.198;2023-04-25T06:19:42;7.20;;;1.15;;
38853;SDS011;24606;51.992;4.198;2023-04-25T06:24:45;2.58;;;0.82;;
38853;SDS011;24606;51.992;4.198;2023-04-25T06:29:47;4.78;;;1.27;;
38853;SDS011;24606;51.992;4.198;2023-04-25T06:34:49;2.95;;;1.17;;
38853;SDS011;24606;51.992;4.198;2023-04-25T06:39:52;5.22;;;0.75;;
38853;SDS011;24606;51.992;4.198;2023-04-25T06:44:54;3.75;;;0.82;;
38853;SDS011;24606;51.992;4.198;2023-04-25T06:49:56;2.07;;;0.73;;
38853;SDS011;24606;51.992;4.198;2023-04-25T06:54:59;4.43;;;0.90;;
38853;SDS011;24606;51.992;4.198;2023-04-25T07:00:01;5.93;;;1.55;;
38853;SDS011;24606;51.992;4.198;2023-04-25T07:05:05;7.40;;;1.00;;
38853;SDS011;24606;51.992;4.198;2023-04-25T07:10:08;3.13;;;0.80;;
38853;SDS011;24606;51.992;4.198;2023-04-25T07:15:10;1.15;;;0.60;;
38853;SDS011;24606;51.992;4.198;2023-04-25T07:20:12;10.00;;;1.10;;
38853;SDS011;24606;51.992;4.198;2023-04-25T07:25:15;4.67;;;0.97;;
38853;SDS011;24606;51.992;4.198;2023-04-25T07:30:17;4.88;;;0.80;;
38853;SDS011;24606;51.992;4.198;2023-04-25T07:35:19;11.47;;;1.47;;
38853;SDS011;24606;51.992;4.198;2023-04-25T07:40:22;2.17;;;0.63;;
38853;SDS011;24606;51.992;4.198;2023-04-25T07:45:25;5.40;;;0.70;;
38853;SDS011;24606;51.992;4.198;2023-04-25T07:50:27;3.67;;;1.52;;
38853;SDS011;24606;51.992;4.198;2023-04-25T07:55:31;5.40;;;0.80;;
38853;SDS011;24606;51.992;4.198;2023-04-25T08:00:32;5.53;;;1.30;;
38853;SDS011;24606;51.992;4.198;2023-04-25T08:05:34;11.10;;;1.13;;
38853;SDS011;24606;51.992;4.198;2023-04-25T08:10:37;5.55;;;1.00;;
38853;SDS011;24606;51.992;4.198;2023-04-25T08:15:39;3.53;;;1.17;;
38853;SDS011;24606;51.992;4.198;2023-04-25T08:20:41;3.53;;;1.40;;
38853;SDS011;24606;51.992;4.198;2023-04-25T08:25:44;4.32;;;1.52;;
38853;SDS011;24606;51.992;4.198;2023-04-25T08:30:46;6.00;;;1.35;;
38853;SDS011;24606;51.992;4.198;2023-04-25T08:35:48;3.30;;;1.23;;
38853;SDS011;24606;51.992;4.198;2023-04-25T08:40:51;7.07;;;1.43;;
38853;SDS011;24606;51.992;4.198;2023-04-25T08:45:55;11.93;;;1.20;;
38853;SDS011;24606;51.992;4.198;2023-04-25T08:51:01;5.45;;;1.40;;
38853;SDS011;24606;51.992;4.198;2023-04-25T08:56:05;5.30;;;1.95;;
38853;SDS011;24606;51.992;4.198;2023-04-25T09:01:09;3.35;;;1.83;;
38853;SDS011;24606;51.992;4.198;2023-04-25T09:06:11;13.07;;;1.70;;
38853;SDS011;24606;51.992;4.198;2023-04-25T09:11:15;6.93;;;1.23;;
38853;SDS011;24606;51.992;4.198;2023-04-25T09:16:17;3.40;;;1.38;;
38853;SDS011;24606;51.992;4.198;2023-04-25T09:21:22;6.40;;;1.58;;
38853;SDS011;24606;51.992;4.198;2023-04-25T09:26:25;4.10;;;1.25;;
38853;SDS011;24606;51.992;4.198;2023-04-25T09:31:27;10.18;;;1.60;;
38853;SDS011;24606;51.992;4.198;2023-04-25T09:36:29;6.57;;;1.67;;
38853;SDS011;24606;51.992;4.198;2023-04-25T09:41:33;5.40;;;2.03;;
38853;SDS011;24606;51.992;4.198;2023-04-25T09:46:38;4.22;;;1.30;;
38853;SDS011;24606;51.992;4.198;2023-04-25T09:51:41;4.30;;;1.15;;
38853;SDS011;24606;51.992;4.198;2023-04-25T09:56:44;3.77;;;1.57;;
38853;SDS011;24606;51.992;4.198;2023-04-25T10:01:49;7.90;;;1.58;;
38853;SDS011;24606;51.992;4.198;2023-04-25T10:06:51;6.38;;;1.30;;
38853;SDS011;24606;51.992;4.198;2023-04-25T10:11:56;2.45;;;1.15;;
38853;SDS011;24606;51.992;4.198;2023-04-25T10:16:58;4.53;;;1.00;;
38853;SDS011;24606;51.992;4.198;2023-04-25T10:22:03;3.28;;;0.88;;
38853;SDS011;24606;51.992;4.198;2023-04-25T10:27:09;4.32;;;0.95;;
38853;SDS011;24606;51.992;4.198;2023-04-25T10:32:12;7.68;;;1.15;;
38853;SDS011;24606;51.992;4.198;2023-04-25T10:37:15;4.20;;;0.80;;
38853;SDS011;24606;51.992;4.198;2023-04-25T10:42:18;3.80;;;0.88;;
38853;SDS011;24606;51.992;4.198;2023-04-25T10:47:20;5.07;;;0.80;;
38853;SDS011;24606;51.992;4.198;2023-04-25T10:52:36;2.90;;;0.93;;
38853;SDS011;24606;51.992;4.198;2023-04-25T10:57:42;4.65;;;0.73;;
38853;SDS011;24606;51.992;4.198;2023-04-25T11:02:47;8.70;;;1.05;;
38853;SDS011;24606;51.992;4.198;2023-04-25T11:07:52;5.53;;;0.95;;
38853;SDS011;24606;51.992;4.198;2023-04-25T11:12:58;6.55;;;1.05;;
38853;SDS011;24606;51.992;4.198;2023-04-25T11:18:00;3.58;;;0.80;;
38853;SDS011;24606;51.992;4.198;2023-04-25T11:23:04;4.32;;;0.52;;
38853;SDS011;24606;51.992;4.198;2023-04-25T11:28:07;3.53;;;1.02;;
38853;SDS011;24606;51.992;4.198;2023-04-25T11:33:09;2.88;;;0.95;;
38853;SDS011;24606;51.992;4.198;2023-04-25T11:38:11;3.80;;;0.93;;
38853;SDS011;24606;51.992;4.198;2023-04-25T11:43:14;7.73;;;1.63;;
38853;SDS011;24606;51.992;4.198;2023-04-25T11:48:16;5.13;;;0.80;;
38853;SDS011;24606;51.992;4.198;2023-04-25T11:53:18;7.73;;;0.90;;
38853;SDS011;24606;51.992;4.198;2023-04-25T11:58:21;7.05;;;1.40;;
38853;SDS011;24606;51.992;4.198;2023-04-25T12:03:23;8.23;;;1.50;;
38853;SDS011;24606;51.992;4.198;2023-04-25T12:08:27;9.68;;;0.93;;
38853;SDS011;24606;51.992;4.198;2023-04-25T12:13:31;11.13;;;1.20;;
38853;SDS011;24606;51.992;4.198;2023-04-25T12:18:35;3.92;;;1.00;;
38853;SDS011;24606;51.992;4.198;2023-04-25T12:23:38;3.50;;;1.08;;
38853;SDS011;24606;51.992;4.198;2023-04-25T12:28:45;2.40;;;0.90;;
38853;SDS011;24606;51.992;4.198;2023-04-25T12:33:48;3.05;;;1.08;;
38853;SDS011;24606;51.992;4.198;2023-04-25T12:38:50;3.72;;;1.25;;
38853;SDS011;24606;51.992;4.198;2023-04-25T12:43:53;10.00;;;1.50;;
38853;SDS011;24606;51.992;4.198;2023-04-25T12:48:55;9.00;;;1.17;;
38853;SDS011;24606;51.992;4.198;2023-04-25T12:53:57;10.10;;;1.55;;
38853;SDS011;24606;51.992;4.198;2023-04-25T12:59:00;7.97;;;1.17;;
38853;SDS011;24606;51.992;4.198;2023-04-25T13:04:03;5.22;;;1.27;;
38853;SDS011;24606;51.992;4.198;2023-04-25T13:09:05;7.55;;;1.25;;
38853;SDS011;24606;51.992;4.198;2023-04-25T13:14:09;6.00;;;1.08;;
38853;SDS011;24606;51.992;4.198;2023-04-25T13:19:10;4.97;;;0.90;;
38853;SDS011;24606;51.992;4.198;2023-04-25T13:24:12;6.23;;;0.83;;
38853;SDS011;24606;51.992;4.198;2023-04-25T13:29:15;3.50;;;0.87;;
38853;SDS011;24606;51.992;4.198;2023-04-25T13:34:17;3.97;;;0.88;;
38853;SDS011;24606;51.992;4.198;2023-04-25T13:39:19;4.70;;;1.43;;
38853;SDS011;24606;51.992;4.198;2023-04-25T13:44:23;6.05;;;1.17;;
38853;SDS011;24606;51.992;4.198;2023-04-25T13:49:24;6.20;;;0.93;;
38853;SDS011;24606;51.992;4.198;2023-04-25T13:54:26;4.87;;;1.07;;
38853;SDS011;24606;51.992;4.198;2023-04-25T13:59:29;8.97;;;1.40;;
38853;SDS011;24606;51.992;4.198;2023-04-25T14:04:32;7.00;;;1.10;;
38853;SDS011;24606;51.992;4.198;2023-04-25T14:09:34;5.45;;;1.60;;
38853;SDS011;24606;51.992;4.198;2023-04-25T14:14:37;5.72;;;1.75;;
38853;SDS011;24606;51.992;4.198;2023-04-25T14:19:39;6.80;;;1.38;;
38853;SDS011;24606;51.992;4.198;2023-04-25T14:24:45;4.70;;;1.35;;
38853;SDS011;24606;51.992;4.198;2023-04-25T14:29:48;4.47;;;1.67;;
38853;SDS011;24606;51.992;4.198;2023-04-25T14:34:50;6.90;;;1.48;;
38853;SDS011;24606;51.992;4.198;2023-04-25T14:39:52;4.88;;;1.95;;
38853;SDS011;24606;51.992;4.198;2023-04-25T14:44:55;5.40;;;1.52;;
38853;SDS011;24606;51.992;4.198;2023-04-25T14:49:57;4.05;;;1.60;;
38853;SDS011;24606;51.992;4.198;2023-04-25T14:54:59;7.30;;;1.10;;
38853;SDS011;24606;51.992;4.198;2023-04-25T15:00:06;7.68;;;0.90;;
38853;SDS011;24606;51.992;4.198;2023-04-25T15:05:09;3.35;;;1.00;;
38853;SDS011;24606;51.992;4.198;2023-04-25T15:10:11;5.63;;;1.30;;
38853;SDS011;24606;51.992;4.198;2023-04-25T15:15:17;5.20;;;1.20;;
38853;SDS011;24606;51.992;4.198;2023-04-25T15:20:19;3.10;;;0.90;;
38853;SDS011;24606;51.992;4.198;2023-04-25T15:25:21;5.35;;;1.85;;
38853;SDS011;24606;51.992;4.198;2023-04-25T15:30:24;6.63;;;1.60;;
38853;SDS011;24606;51.992;4.198;2023-04-25T15:35:26;2.38;;;0.98;;
38853;SDS011;24606;51.992;4.198;2023-04-25T15:40:28;3.25;;;1.27;;
38853;SDS011;24606;51.992;4.198;2023-04-25T15:45:31;4.55;;;1.23;;
38853;SDS011;24606;51.992;4.198;2023-04-25T15:50:35;4.93;;;1.20;;
38853;SDS011;24606;51.992;4.198;2023-04-25T15:55:36;4.28;;;1.20;;
38853;SDS011;24606;51.992;4.198;2023-04-25T16:00:40;2.67;;;1.20;;
38853;SDS011;24606;51.992;4.198;2023-04-25T16:05:42;5.85;;;0.95;;
38853;SDS011;24606;51.992;4.198;2023-04-25T16:10:44;2.88;;;1.00;;
38853;SDS011;24606;51.992;4.198;2023-04-25T16:15:47;2.05;;;0.85;;
38853;SDS011;24606;51.992;4.198;2023-04-25T16:20:49;4.43;;;1.00;;
38853;SDS011;24606;51.992;4.198;2023-04-25T16:25:51;6.82;;;1.20;;
38853;SDS011;24606;51.992;4.198;2023-04-25T16:30:55;5.78;;;1.08;;
38853;SDS011;24606;51.992;4.198;2023-04-25T16:35:57;5.05;;;1.20;;
38853;SDS011;24606;51.992;4.198;2023-04-25T16:40:59;4.72;;;1.83;;
38853;SDS011;24606;51.992;4.198;2023-04-25T16:51:04;4.18;;;1.92;;
38853;SDS011;24606;51.992;4.198;2023-04-25T16:56:06;8.43;;;2.38;;
38853;SDS011;24606;51.992;4.198;2023-04-25T17:01:09;7.90;;;3.15;;
38853;SDS011;24606;51.992;4.198;2023-04-25T17:06:15;9.93;;;3.28;;
38853;SDS011;24606;51.992;4.198;2023-04-25T17:16:20;6.15;;;2.90;;
38853;SDS011;24606;51.992;4.198;2023-04-25T17:21:22;5.22;;;2.13;;
38853;SDS011;24606;51.992;4.198;2023-04-25T17:26:24;12.80;;;2.40;;
38853;SDS011;24606;51.992;4.198;2023-04-25T17:31:28;7.18;;;2.20;;
38853;SDS011;24606;51.992;4.198;2023-04-25T17:36:30;7.25;;;1.63;;
38853;SDS011;24606;51.992;4.198;2023-04-25T17:41:31;4.05;;;1.35;;
38853;SDS011;24606;51.992;4.198;2023-04-25T17:46:35;3.53;;;0.80;;
38853;SDS011;24606;51.992;4.198;2023-04-25T17:51:36;5.68;;;1.50;;
38853;SDS011;24606;51.992;4.198;2023-04-25T17:56:38;2.67;;;1.65;;
38853;SDS011;24606;51.992;4.198;2023-04-25T18:06:44;3.40;;;1.30;;
38853;SDS011;24606;51.992;4.198;2023-04-25T18:11:46;3.00;;;1.05;;
38853;SDS011;24606;51.992;4.198;2023-04-25T18:16:51;5.97;;;1.65;;
38853;SDS011;24606;51.992;4.198;2023-04-25T18:21:53;4.20;;;1.20;;
38853;SDS011;24606;51.992;4.198;2023-04-25T18:32:01;2.45;;;1.00;;
38853;SDS011;24606;51.992;4.198;2023-04-25T18:37:03;3.38;;;1.23;;
38853;SDS011;24606;51.992;4.198;2023-04-25T18:42:05;3.22;;;1.15;;
38853;SDS011;24606;51.992;4.198;2023-04-25T18:47:08;1.83;;;1.13;;
38853;SDS011;24606;51.992;4.198;2023-04-25T18:52:12;5.50;;;1.02;;
38853;SDS011;24606;51.992;4.198;2023-04-25T18:57:15;2.67;;;1.20;;
38853;SDS011;24606;51.992;4.198;2023-04-25T19:02:18;2.33;;;1.10;;
38853;SDS011;24606;51.992;4.198;2023-04-25T19:07:21;1.45;;;1.05;;
38853;SDS011;24606;51.992;4.198;2023-04-25T19:12:24;3.05;;;1.20;;
38853;SDS011;24606;51.992;4.198;2023-04-25T19:17:27;3.22;;;1.27;;
38853;SDS011;24606;51.992;4.198;2023-04-25T19:22:29;7.18;;;1.73;;
38853;SDS011;24606;51.992;4.198;2023-04-25T19:27:32;6.03;;;2.05;;
38853;SDS011;24606;51.992;4.198;2023-04-25T19:32:35;4.10;;;1.80;;
38853;SDS011;24606;51.992;4.198;2023-04-25T19:37:37;7.43;;;2.08;;
38853;SDS011;24606;51.992;4.198;2023-04-25T19:46:12;7.20;;;1.58;;
38853;SDS011;24606;51.992;4.198;2023-04-25T19:51:13;4.32;;;1.90;;
38853;SDS011;24606;51.992;4.198;2023-04-25T19:56:15;9.38;;;1.98;;
38853;SDS011;24606;51.992;4.198;2023-04-25T20:01:18;3.83;;;1.75;;
38853;SDS011;24606;51.992;4.198;2023-04-25T20:06:21;4.63;;;1.67;;
38853;SDS011;24606;51.992;4.198;2023-04-25T20:11:23;6.93;;;2.50;;
38853;SDS011;24606;51.992;4.198;2023-04-25T20:16:29;7.72;;;3.20;;
38853;SDS011;24606;51.992;4.198;2023-04-25T20:21:31;6.70;;;2.60;;
38853;SDS011;24606;51.992;4.198;2023-04-25T20:26:33;5.22;;;2.72;;
38853;SDS011;24606;51.992;4.198;2023-04-25T20:31:37;6.97;;;3.13;;
38853;SDS011;24606;51.992;4.198;2023-04-25T20:36:39;8.60;;;2.65;;
38853;SDS011;24606;51.992;4.198;2023-04-25T20:41:41;9.23;;;3.25;;
38853;SDS011;24606;51.992;4.198;2023-04-25T20:46:46;6.47;;;2.38;;
38853;SDS011;24606;51.992;4.198;2023-04-25T20:51:48;4.63;;;1.58;;
38853;SDS011;24606;51.992;4.198;2023-04-25T20:56:51;3.53;;;1.67;;
38853;SDS011;24606;51.992;4.198;2023-04-25T21:01:55;14.15;;;2.92;;
38853;SDS011;24606;51.992;4.198;2023-04-25T21:06:58;7.28;;;2.47;;
38853;SDS011;24606;51.992;4.198;2023-04-25T21:12:00;10.23;;;2.10;;
38853;SDS011;24606;51.992;4.198;2023-04-25T21:17:05;5.82;;;2.05;;
38853;SDS011;24606;51.992;4.198;2023-04-25T21:22:07;5.10;;;1.73;;
38853;SDS011;24606;51.992;4.198;2023-04-25T21:27:09;4.25;;;1.75;;
38853;SDS011;24606;51.992;4.198;2023-04-25T21:32:12;5.35;;;2.60;;
38853;SDS011;24606;51.992;4.198;2023-04-25T21:37:19;6.63;;;2.50;;
38853;SDS011;24606;51.992;4.198;2023-04-25T21:42:21;4.82;;;1.38;;
38853;SDS011;24606;51.992;4.198;2023-04-25T21:47:25;4.40;;;2.00;;
38853;SDS011;24606;51.992;4.198;2023-04-25T21:52:27;6.10;;;1.90;;
38853;SDS011;24606;51.992;4.198;2023-04-25T21:57:28;2.92;;;1.52;;
38853;SDS011;24606;51.992;4.198;2023-04-25T22:02:32;3.85;;;1.65;;
38853;SDS011;24606;51.992;4.198;2023-04-25T22:07:35;2.97;;;1.45;;
38853;SDS011;24606;51.992;4.198;2023-04-25T22:12:37;3.40;;;1.75;;
38853;SDS011;24606;51.992;4.198;2023-04-25T22:17:40;3.58;;;2.55;;
38853;SDS011;24606;51.992;4.198;2023-04-25T22:22:42;3.10;;;1.73;;
38853;SDS011;24606;51.992;4.198;2023-04-25T22:27:44;3.00;;;1.80;;
38853;SDS011;24606;51.992;4.198;2023-04-25T22:32:48;3.20;;;1.73;;
38853;SDS011;24606;51.992;4.198;2023-04-25T22:37:50;3.15;;;1.35;;
38853;SDS011;24606;51.992;4.198;2023-04-25T22:42:52;4.22;;;2.05;;
38853;SDS011;24606;51.992;4.198;2023-04-25T22:47:55;4.40;;;1.80;;
38853;SDS011;24606;51.992;4.198;2023-04-25T22:52:57;3.90;;;1.73;;
38853;SDS011;24606;51.992;4.198;2023-04-25T22:57:59;2.38;;;1.45;;
38853;SDS011;24606;51.992;4.198;2023-04-25T23:03:03;2.55;;;1.83;;
38853;SDS011;24606;51.992;4.198;2023-04-25T23:08:05;5.40;;;1.88;;
38853;SDS011;24606;51.992;4.198;2023-04-25T23:13:06;3.35;;;1.73;;
38853;SDS011;24606;51.992;4.198;2023-04-25T23:18:10;2.45;;;1.55;;
38853;SDS011;24606;51.992;4.198;2023-04-25T23:23:11;2.22;;;1.52;;
38853;SDS011;24606;51.992;4.198;2023-04-25T23:28:14;4.25;;;1.65;;
38853;SDS011;24606;51.992;4.198;2023-04-25T23:33:17;4.07;;;1.80;;
38853;SDS011;24606;51.992;4.198;2023-04-25T23:38:19;3.25;;;1.50;;
38853;SDS011;24606;51.992;4.198;2023-04-25T23:43:21;2.42;;;1.00;;
38853;SDS011;24606;51.992;4.198;2023-04-25T23:48:25;2.75;;;1.13;;
38853;SDS011;24606;51.992;4.198;2023-04-25T23:53:26;4.13;;;1.35;;
38853;SDS011;24606;51.992;4.198;2023-04-25T23:58:28;3.42;;;1.48;;
